sensor_id;sensor_type;location;lat;lon;timestamp;temperature;humidity
2459;DHT22;1241;50.920;6.936;2022-09-01T00:01:27;18.90;99.90
2459;DHT22;1241;50.920;6.936;2022-09-01T00:03:55;18.90;99.90
2459;DHT22;1241;50.920;6.936;2022-09-01T00:06:28;18.80;99.90
2459;DHT22;1241;50.920;6.936;2022-09-01T00:08:57;18.80;99.90
2459;DHT22;1241;50.920;6.936;2022-09-01T00:11:25;18.80;99.90
2459;DHT22;1241;50.920;6.936;2022-09-01T00:13:52;18.80;99.90
2459;DHT22;1241;50.920;6.936;2022-09-01T00:16:19;18.80;99.90
2459;DHT22;1241;50.920;6.936;2022-09-01T00:18:49;18.70;99.90
2459;DHT22;1241;50.920;6.936;2022-09-01T00:21:24;18.70;99.90
2459;DHT22;1241;50.920;6.936;2022-09-01T00:23:51;18.70;99.90
2459;DHT22;1241;50.920;6.936;2022-09-01T00:26:16;18.70;99.90
2459;DHT22;1241;50.920;6.936;2022-09-01T00:28:42;18.70;99.90
2459;DHT22;1241;50.920;6.936;2022-09-01T00:31:08;18.70;99.90
2459;DHT22;1241;50.920;6.936;2022-09-01T00:33:36;18.80;99.90
2459;DHT22;1241;50.920;6.936;2022-09-01T00:36:03;18.90;99.90
2459;DHT22;1241;50.920;6.936;2022-09-01T00:38:30;19.00;99.90
2459;DHT22;1241;50.920;6.936;2022-09-01T00:40:56;19.10;99.90
2459;DHT22;1241;50.920;6.936;2022-09-01T00:43:44;19.10;99.90
2459;DHT22;1241;50.920;6.936;2022-09-01T00:46:18;19.00;99.90
2459;DHT22;1241;50.920;6.936;2022-09-01T00:48:44;18.90;99.90
2459;DHT22;1241;50.920;6.936;2022-09-01T00:51:11;18.90;99.90
2459;DHT22;1241;50.920;6.936;2022-09-01T00:53:39;18.80;99.90
2459;DHT22;1241;50.920;6.936;2022-09-01T00:56:06;18.70;99.90
2459;DHT22;1241;50.920;6.936;2022-09-01T00:58:34;18.70;99.90
2459;DHT22;1241;50.920;6.936;2022-09-01T01:01:00;18.60;99.90
2459;DHT22;1241;50.920;6.936;2022-09-01T01:03:27;18.60;99.90
2459;DHT22;1241;50.920;6.936;2022-09-01T01:05:57;18.50;99.90
2459;DHT22;1241;50.920;6.936;2022-09-01T01:08:31;18.40;99.90
2459;DHT22;1241;50.920;6.936;2022-09-01T01:11:06;18.40;99.90
2459;DHT22;1241;50.920;6.936;2022-09-01T01:13:49;18.30;99.90
2459;DHT22;1241;50.920;6.936;2022-09-01T01:16:16;18.30;99.90
2459;DHT22;1241;50.920;6.936;2022-09-01T01:18:43;18.20;99.90
2459;DHT22;1241;50.920;6.936;2022-09-01T01:21:17;18.20;99.90
2459;DHT22;1241;50.920;6.936;2022-09-01T01:26:46;18.20;99.90
2459;DHT22;1241;50.920;6.936;2022-09-01T01:29:13;18.20;99.90
2459;DHT22;1241;50.920;6.936;2022-09-01T01:31:39;18.10;99.90
2459;DHT22;1241;50.920;6.936;2022-09-01T01:34:05;18.10;99.90
2459;DHT22;1241;50.920;6.936;2022-09-01T01:36:37;18.10;99.90
2459;DHT22;1241;50.920;6.936;2022-09-01T01:39:15;18.10;99.90
2459;DHT22;1241;50.920;6.936;2022-09-01T01:41:43;18.00;99.90
2459;DHT22;1241;50.920;6.936;2022-09-01T01:44:16;18.10;99.90
2459;DHT22;1241;50.920;6.936;2022-09-01T01:46:50;18.10;99.90
2459;DHT22;1241;50.920;6.936;2022-09-01T01:49:20;18.10;99.90
2459;DHT22;1241;50.920;6.936;2022-09-01T01:51:49;18.10;99.90
2459;DHT22;1241;50.920;6.936;2022-09-01T01:54:17;18.10;99.90
2459;DHT22;1241;50.920;6.936;2022-09-01T01:56:44;18.10;99.90
2459;DHT22;1241;50.920;6.936;2022-09-01T01:59:10;18.10;99.90
2459;DHT22;1241;50.920;6.936;2022-09-01T02:01:41;18.10;99.90
2459;DHT22;1241;50.920;6.936;2022-09-01T02:04:09;18.20;99.90
2459;DHT22;1241;50.920;6.936;2022-09-01T02:06:37;18.10;99.90
2459;DHT22;1241;50.920;6.936;2022-09-01T02:09:06;18.00;99.90
2459;DHT22;1241;50.920;6.936;2022-09-01T02:11:32;18.00;99.90
2459;DHT22;1241;50.920;6.936;2022-09-01T02:13:59;18.00;99.90
2459;DHT22;1241;50.920;6.936;2022-09-01T02:16:30;18.00;99.90
2459;DHT22;1241;50.920;6.936;2022-09-01T02:18:58;18.00;99.90
2459;DHT22;1241;50.920;6.936;2022-09-01T02:21:26;18.00;99.90
2459;DHT22;1241;50.920;6.936;2022-09-01T02:23:55;17.90;99.90
2459;DHT22;1241;50.920;6.936;2022-09-01T02:26:37;17.80;99.90
2459;DHT22;1241;50.920;6.936;2022-09-01T02:29:08;17.80;99.90
2459;DHT22;1241;50.920;6.936;2022-09-01T02:31:38;17.80;99.90
2459;DHT22;1241;50.920;6.936;2022-09-01T02:34:07;17.70;99.90
2459;DHT22;1241;50.920;6.936;2022-09-01T02:36:37;17.70;99.90
2459;DHT22;1241;50.920;6.936;2022-09-01T02:39:08;17.70;99.90
2459;DHT22;1241;50.920;6.936;2022-09-01T02:41:33;17.70;99.90
2459;DHT22;1241;50.920;6.936;2022-09-01T02:43:59;17.70;99.90
2459;DHT22;1241;50.920;6.936;2022-09-01T02:46:27;17.70;99.90
2459;DHT22;1241;50.920;6.936;2022-09-01T02:48:54;17.70;99.90
2459;DHT22;1241;50.920;6.936;2022-09-01T02:51:23;17.70;99.90
2459;DHT22;1241;50.920;6.936;2022-09-01T02:53:50;17.70;99.90
2459;DHT22;1241;50.920;6.936;2022-09-01T02:56:22;17.70;99.90
2459;DHT22;1241;50.920;6.936;2022-09-01T02:58:49;17.70;99.90
2459;DHT22;1241;50.920;6.936;2022-09-01T03:01:21;17.80;99.90
2459;DHT22;1241;50.920;6.936;2022-09-01T03:03:52;17.80;99.90
2459;DHT22;1241;50.920;6.936;2022-09-01T03:06:19;17.90;99.90
2459;DHT22;1241;50.920;6.936;2022-09-01T03:08:53;18.10;99.90
2459;DHT22;1241;50.920;6.936;2022-09-01T03:11:21;18.10;99.90
2459;DHT22;1241;50.920;6.936;2022-09-01T03:13:49;18.10;99.90
2459;DHT22;1241;50.920;6.936;2022-09-01T03:16:15;18.10;99.90
2459;DHT22;1241;50.920;6.936;2022-09-01T03:18:43;18.10;99.90
2459;DHT22;1241;50.920;6.936;2022-09-01T03:21:09;18.10;99.90
2459;DHT22;1241;50.920;6.936;2022-09-01T03:23:41;18.10;99.90
2459;DHT22;1241;50.920;6.936;2022-09-01T03:26:08;18.10;99.90
2459;DHT22;1241;50.920;6.936;2022-09-01T03:28:33;18.10;99.90
2459;DHT22;1241;50.920;6.936;2022-09-01T03:30:59;18.10;99.90
2459;DHT22;1241;50.920;6.936;2022-09-01T03:33:26;18.00;99.90
2459;DHT22;1241;50.920;6.936;2022-09-01T03:35:54;18.00;99.90
2459;DHT22;1241;50.920;6.936;2022-09-01T03:38:21;17.90;99.90
2459;DHT22;1241;50.920;6.936;2022-09-01T03:40:54;18.00;99.90
2459;DHT22;1241;50.920;6.936;2022-09-01T03:43:24;17.90;99.90
2459;DHT22;1241;50.920;6.936;2022-09-01T03:45:54;17.80;99.90
2459;DHT22;1241;50.920;6.936;2022-09-01T03:48:22;17.70;99.90
2459;DHT22;1241;50.920;6.936;2022-09-01T03:50:51;17.70;99.90
2459;DHT22;1241;50.920;6.936;2022-09-01T03:53:21;17.60;99.90
2459;DHT22;1241;50.920;6.936;2022-09-01T03:55:48;17.50;99.90
2459;DHT22;1241;50.920;6.936;2022-09-01T03:58:17;17.40;99.90
2459;DHT22;1241;50.920;6.936;2022-09-01T04:00:52;17.40;99.90
2459;DHT22;1241;50.920;6.936;2022-09-01T04:03:22;17.30;99.90
2459;DHT22;1241;50.920;6.936;2022-09-01T04:05:50;17.30;99.90
2459;DHT22;1241;50.920;6.936;2022-09-01T04:08:18;17.30;99.90
2459;DHT22;1241;50.920;6.936;2022-09-01T04:10:52;17.20;99.90
2459;DHT22;1241;50.920;6.936;2022-09-01T04:13:22;17.10;99.90
2459;DHT22;1241;50.920;6.936;2022-09-01T04:15:48;17.10;99.90
2459;DHT22;1241;50.920;6.936;2022-09-01T04:18:15;17.10;99.90
2459;DHT22;1241;50.920;6.936;2022-09-01T04:20:56;17.00;99.90
2459;DHT22;1241;50.920;6.936;2022-09-01T04:26:07;16.90;99.90
2459;DHT22;1241;50.920;6.936;2022-09-01T04:28:48;16.80;99.90
2459;DHT22;1241;50.920;6.936;2022-09-01T04:31:20;16.70;99.90
2459;DHT22;1241;50.920;6.936;2022-09-01T04:33:50;16.70;99.90
2459;DHT22;1241;50.920;6.936;2022-09-01T04:36:28;16.70;99.90
2459;DHT22;1241;50.920;6.936;2022-09-01T04:39:01;16.70;99.90
2459;DHT22;1241;50.920;6.936;2022-09-01T04:41:31;16.70;99.90
2459;DHT22;1241;50.920;6.936;2022-09-01T04:44:01;16.60;99.90
2459;DHT22;1241;50.920;6.936;2022-09-01T04:46:34;16.60;99.90
2459;DHT22;1241;50.920;6.936;2022-09-01T04:49:03;16.60;99.90
2459;DHT22;1241;50.920;6.936;2022-09-01T04:51:39;16.60;99.90
2459;DHT22;1241;50.920;6.936;2022-09-01T04:54:06;16.60;99.90
2459;DHT22;1241;50.920;6.936;2022-09-01T04:56:35;16.60;99.90
2459;DHT22;1241;50.920;6.936;2022-09-01T04:59:28;16.60;99.90
2459;DHT22;1241;50.920;6.936;2022-09-01T05:01:58;16.70;99.90
2459;DHT22;1241;50.920;6.936;2022-09-01T05:04:28;16.70;99.90
2459;DHT22;1241;50.920;6.936;2022-09-01T05:07:02;16.80;99.90
2459;DHT22;1241;50.920;6.936;2022-09-01T05:09:35;16.90;99.90
2459;DHT22;1241;50.920;6.936;2022-09-01T05:12:09;16.90;99.90
2459;DHT22;1241;50.920;6.936;2022-09-01T05:14:44;16.90;99.90
2459;DHT22;1241;50.920;6.936;2022-09-01T05:17:12;17.00;99.90
2459;DHT22;1241;50.920;6.936;2022-09-01T05:19:43;17.00;99.90
2459;DHT22;1241;50.920;6.936;2022-09-01T05:22:12;17.10;99.90
2459;DHT22;1241;50.920;6.936;2022-09-01T05:24:42;17.20;99.90
2459;DHT22;1241;50.920;6.936;2022-09-01T05:27:09;17.40;99.90
2459;DHT22;1241;50.920;6.936;2022-09-01T05:29:37;17.60;99.90
2459;DHT22;1241;50.920;6.936;2022-09-01T05:32:05;17.90;99.90
2459;DHT22;1241;50.920;6.936;2022-09-01T05:34:36;18.00;99.90
2459;DHT22;1241;50.920;6.936;2022-09-01T05:37:05;18.10;99.90
2459;DHT22;1241;50.920;6.936;2022-09-01T05:39:31;18.20;99.90
2459;DHT22;1241;50.920;6.936;2022-09-01T05:41:58;18.20;99.90
2459;DHT22;1241;50.920;6.936;2022-09-01T05:44:26;18.30;99.90
2459;DHT22;1241;50.920;6.936;2022-09-01T05:46:54;18.30;99.90
2459;DHT22;1241;50.920;6.936;2022-09-01T05:49:23;18.40;99.90
2459;DHT22;1241;50.920;6.936;2022-09-01T05:51:52;18.50;99.90
2459;DHT22;1241;50.920;6.936;2022-09-01T05:54:21;18.50;99.90
2459;DHT22;1241;50.920;6.936;2022-09-01T05:56:48;18.70;99.90
2459;DHT22;1241;50.920;6.936;2022-09-01T05:59:19;18.80;99.90
2459;DHT22;1241;50.920;6.936;2022-09-01T06:01:46;18.90;99.90
2459;DHT22;1241;50.920;6.936;2022-09-01T06:04:13;19.10;99.90
2459;DHT22;1241;50.920;6.936;2022-09-01T06:06:46;19.20;99.90
2459;DHT22;1241;50.920;6.936;2022-09-01T06:09:15;19.20;99.90
2459;DHT22;1241;50.920;6.936;2022-09-01T06:11:49;19.30;99.90
2459;DHT22;1241;50.920;6.936;2022-09-01T06:14:15;19.40;99.90
2459;DHT22;1241;50.920;6.936;2022-09-01T06:16:44;19.70;99.90
2459;DHT22;1241;50.920;6.936;2022-09-01T06:19:12;20.00;99.90
2459;DHT22;1241;50.920;6.936;2022-09-01T06:21:42;20.40;99.90
2459;DHT22;1241;50.920;6.936;2022-09-01T06:24:08;20.60;99.90
2459;DHT22;1241;50.920;6.936;2022-09-01T06:26:35;20.80;99.90
2459;DHT22;1241;50.920;6.936;2022-09-01T06:29:05;21.00;99.90
2459;DHT22;1241;50.920;6.936;2022-09-01T06:31:34;21.00;99.90
2459;DHT22;1241;50.920;6.936;2022-09-01T06:34:09;21.20;99.90
2459;DHT22;1241;50.920;6.936;2022-09-01T06:36:38;21.60;99.90
2459;DHT22;1241;50.920;6.936;2022-09-01T06:39:08;21.90;99.90
2459;DHT22;1241;50.920;6.936;2022-09-01T06:41:40;22.00;99.90
2459;DHT22;1241;50.920;6.936;2022-09-01T06:44:09;22.10;99.90
2459;DHT22;1241;50.920;6.936;2022-09-01T06:46:41;22.00;99.90
2459;DHT22;1241;50.920;6.936;2022-09-01T06:49:07;22.10;99.90
2459;DHT22;1241;50.920;6.936;2022-09-01T06:51:36;22.20;99.90
2459;DHT22;1241;50.920;6.936;2022-09-01T06:54:03;22.30;99.90
2459;DHT22;1241;50.920;6.936;2022-09-01T06:56:33;22.70;99.90
2459;DHT22;1241;50.920;6.936;2022-09-01T06:59:00;22.80;99.90
2459;DHT22;1241;50.920;6.936;2022-09-01T07:01:29;23.00;99.90
2459;DHT22;1241;50.920;6.936;2022-09-01T07:03:55;23.30;99.90
2459;DHT22;1241;50.920;6.936;2022-09-01T07:06:29;23.50;99.90
2459;DHT22;1241;50.920;6.936;2022-09-01T07:09:14;23.80;99.90
2459;DHT22;1241;50.920;6.936;2022-09-01T07:11:42;24.20;99.90
2459;DHT22;1241;50.920;6.936;2022-09-01T07:14:09;24.30;99.90
2459;DHT22;1241;50.920;6.936;2022-09-01T07:16:37;24.40;99.90
2459;DHT22;1241;50.920;6.936;2022-09-01T07:19:08;24.50;99.90
2459;DHT22;1241;50.920;6.936;2022-09-01T07:21:41;24.70;99.90
2459;DHT22;1241;50.920;6.936;2022-09-01T07:24:10;24.80;99.90
2459;DHT22;1241;50.920;6.936;2022-09-01T07:26:37;24.80;99.90
2459;DHT22;1241;50.920;6.936;2022-09-01T07:29:04;24.80;99.90
2459;DHT22;1241;50.920;6.936;2022-09-01T07:31:40;24.90;99.90
2459;DHT22;1241;50.920;6.936;2022-09-01T07:34:10;24.90;99.90
2459;DHT22;1241;50.920;6.936;2022-09-01T07:36:41;24.80;99.90
2459;DHT22;1241;50.920;6.936;2022-09-01T07:39:09;24.60;99.90
2459;DHT22;1241;50.920;6.936;2022-09-01T07:41:35;24.50;99.90
2459;DHT22;1241;50.920;6.936;2022-09-01T07:44:24;24.60;99.90
2459;DHT22;1241;50.920;6.936;2022-09-01T07:47:09;24.40;99.90
2459;DHT22;1241;50.920;6.936;2022-09-01T07:49:36;24.30;99.90
2459;DHT22;1241;50.920;6.936;2022-09-01T07:52:04;24.10;99.90
2459;DHT22;1241;50.920;6.936;2022-09-01T07:54:30;23.70;99.90
2459;DHT22;1241;50.920;6.936;2022-09-01T07:56:58;23.50;99.90
2459;DHT22;1241;50.920;6.936;2022-09-01T07:59:24;23.40;99.90
2459;DHT22;1241;50.920;6.936;2022-09-01T08:01:59;23.10;99.90
2459;DHT22;1241;50.920;6.936;2022-09-01T08:04:26;23.00;99.90
2459;DHT22;1241;50.920;6.936;2022-09-01T08:06:53;22.90;99.90
2459;DHT22;1241;50.920;6.936;2022-09-01T08:09:21;22.80;99.90
2459;DHT22;1241;50.920;6.936;2022-09-01T08:11:46;22.80;99.90
2459;DHT22;1241;50.920;6.936;2022-09-01T08:14:12;22.70;99.90
2459;DHT22;1241;50.920;6.936;2022-09-01T08:16:38;22.60;99.90
2459;DHT22;1241;50.920;6.936;2022-09-01T08:19:05;22.30;99.90
2459;DHT22;1241;50.920;6.936;2022-09-01T08:21:49;22.20;99.90
2459;DHT22;1241;50.920;6.936;2022-09-01T08:24:26;22.20;99.90
2459;DHT22;1241;50.920;6.936;2022-09-01T08:26:51;22.20;99.90
2459;DHT22;1241;50.920;6.936;2022-09-01T08:29:17;22.20;99.90
2459;DHT22;1241;50.920;6.936;2022-09-01T08:31:46;22.10;99.90
2459;DHT22;1241;50.920;6.936;2022-09-01T08:34:12;22.10;99.90
2459;DHT22;1241;50.920;6.936;2022-09-01T08:36:38;22.00;99.90
2459;DHT22;1241;50.920;6.936;2022-09-01T08:39:05;21.90;99.90
2459;DHT22;1241;50.920;6.936;2022-09-01T08:41:43;21.90;99.90
2459;DHT22;1241;50.920;6.936;2022-09-01T08:47:16;22.20;99.90
2459;DHT22;1241;50.920;6.936;2022-09-01T08:49:44;22.40;99.90
2459;DHT22;1241;50.920;6.936;2022-09-01T08:55:11;22.40;99.90
2459;DHT22;1241;50.920;6.936;2022-09-01T08:57:42;22.50;99.90
2459;DHT22;1241;50.920;6.936;2022-09-01T09:00:20;22.60;99.90
2459;DHT22;1241;50.920;6.936;2022-09-01T09:03:03;22.70;99.90
2459;DHT22;1241;50.920;6.936;2022-09-01T09:08:51;22.60;99.90
2459;DHT22;1241;50.920;6.936;2022-09-01T09:16:42;22.80;99.90
2459;DHT22;1241;50.920;6.936;2022-09-01T09:21:43;23.00;99.90
2459;DHT22;1241;50.920;6.936;2022-09-01T09:24:23;23.10;99.90
2459;DHT22;1241;50.920;6.936;2022-09-01T09:26:53;23.20;99.90
2459;DHT22;1241;50.920;6.936;2022-09-01T09:29:19;23.30;99.90
2459;DHT22;1241;50.920;6.936;2022-09-01T09:31:47;23.30;99.90
2459;DHT22;1241;50.920;6.936;2022-09-01T09:34:34;23.50;99.90
2459;DHT22;1241;50.920;6.936;2022-09-01T09:37:28;23.50;99.90
2459;DHT22;1241;50.920;6.936;2022-09-01T09:40:04;23.50;99.90
2459;DHT22;1241;50.920;6.936;2022-09-01T09:42:35;23.50;99.90
2459;DHT22;1241;50.920;6.936;2022-09-01T09:45:20;23.70;99.90
2459;DHT22;1241;50.920;6.936;2022-09-01T09:47:47;23.80;99.90
2459;DHT22;1241;50.920;6.936;2022-09-01T09:50:23;23.90;99.90
2459;DHT22;1241;50.920;6.936;2022-09-01T09:52:51;24.00;99.90
2459;DHT22;1241;50.920;6.936;2022-09-01T09:55:28;24.00;99.90
2459;DHT22;1241;50.920;6.936;2022-09-01T09:57:57;24.20;99.90
2459;DHT22;1241;50.920;6.936;2022-09-01T10:00:32;24.50;99.90
2459;DHT22;1241;50.920;6.936;2022-09-01T10:03:03;24.50;99.90
2459;DHT22;1241;50.920;6.936;2022-09-01T10:05:43;24.70;99.30
2459;DHT22;1241;50.920;6.936;2022-09-01T10:10:55;24.80;97.40
2459;DHT22;1241;50.920;6.936;2022-09-01T10:13:23;24.60;95.90
2459;DHT22;1241;50.920;6.936;2022-09-01T10:15:53;24.60;95.50
2459;DHT22;1241;50.920;6.936;2022-09-01T10:18:22;24.70;94.10
2459;DHT22;1241;50.920;6.936;2022-09-01T10:21:03;24.90;93.90
2459;DHT22;1241;50.920;6.936;2022-09-01T10:23:34;25.30;93.90
2459;DHT22;1241;50.920;6.936;2022-09-01T10:26:15;25.50;93.40
2459;DHT22;1241;50.920;6.936;2022-09-01T10:29:02;25.50;92.70
2459;DHT22;1241;50.920;6.936;2022-09-01T10:31:30;25.40;92.40
2459;DHT22;1241;50.920;6.936;2022-09-01T10:33:57;25.20;91.70
2459;DHT22;1241;50.920;6.936;2022-09-01T10:36:24;25.10;92.00
2459;DHT22;1241;50.920;6.936;2022-09-01T10:38:49;25.20;92.50
2459;DHT22;1241;50.920;6.936;2022-09-01T10:44:35;25.00;93.30
2459;DHT22;1241;50.920;6.936;2022-09-01T10:47:32;24.90;93.80
2459;DHT22;1241;50.920;6.936;2022-09-01T10:50:01;25.00;93.60
2459;DHT22;1241;50.920;6.936;2022-09-01T10:55:33;24.90;93.70
2459;DHT22;1241;50.920;6.936;2022-09-01T10:58:28;25.10;92.30
2459;DHT22;1241;50.920;6.936;2022-09-01T11:00:55;25.30;91.50
2459;DHT22;1241;50.920;6.936;2022-09-01T11:06:07;25.40;91.80
2459;DHT22;1241;50.920;6.936;2022-09-01T11:11:23;25.50;91.60
2459;DHT22;1241;50.920;6.936;2022-09-01T11:13:56;25.70;91.50
2459;DHT22;1241;50.920;6.936;2022-09-01T11:16:34;25.80;90.70
2459;DHT22;1241;50.920;6.936;2022-09-01T11:27:06;25.80;89.50
2459;DHT22;1241;50.920;6.936;2022-09-01T11:32:23;26.30;89.00
2459;DHT22;1241;50.920;6.936;2022-09-01T11:34:50;26.30;88.00
2459;DHT22;1241;50.920;6.936;2022-09-01T11:37:20;26.40;87.70
2459;DHT22;1241;50.920;6.936;2022-09-01T11:39:47;26.50;86.00
2459;DHT22;1241;50.920;6.936;2022-09-01T11:42:24;26.40;85.10
2459;DHT22;1241;50.920;6.936;2022-09-01T11:45:04;26.50;84.90
2459;DHT22;1241;50.920;6.936;2022-09-01T11:47:38;26.70;85.00
2459;DHT22;1241;50.920;6.936;2022-09-01T11:50:20;26.70;84.90
2459;DHT22;1241;50.920;6.936;2022-09-01T11:52:59;26.70;84.60
2459;DHT22;1241;50.920;6.936;2022-09-01T11:55:35;26.80;84.70
2459;DHT22;1241;50.920;6.936;2022-09-01T11:58:02;26.70;84.10
2459;DHT22;1241;50.920;6.936;2022-09-01T12:00:38;26.70;84.10
2459;DHT22;1241;50.920;6.936;2022-09-01T12:03:27;26.60;85.30
2459;DHT22;1241;50.920;6.936;2022-09-01T12:06:05;26.70;85.40
2459;DHT22;1241;50.920;6.936;2022-09-01T12:08:35;26.80;84.80
2459;DHT22;1241;50.920;6.936;2022-09-01T12:11:12;27.10;83.70
2459;DHT22;1241;50.920;6.936;2022-09-01T12:13:58;27.30;83.00
2459;DHT22;1241;50.920;6.936;2022-09-01T12:16:25;27.40;82.00
2459;DHT22;1241;50.920;6.936;2022-09-01T12:18:53;27.40;80.10
2459;DHT22;1241;50.920;6.936;2022-09-01T12:23:48;27.60;79.00
2459;DHT22;1241;50.920;6.936;2022-09-01T12:26:25;27.80;80.20
2459;DHT22;1241;50.920;6.936;2022-09-01T12:28:52;28.20;80.30
2459;DHT22;1241;50.920;6.936;2022-09-01T12:31:21;28.50;79.20
2459;DHT22;1241;50.920;6.936;2022-09-01T12:33:48;28.80;76.50
2459;DHT22;1241;50.920;6.936;2022-09-01T12:36:30;29.00;73.10
2459;DHT22;1241;50.920;6.936;2022-09-01T12:39:21;28.80;73.10
2459;DHT22;1241;50.920;6.936;2022-09-01T12:42:21;28.60;73.20
2459;DHT22;1241;50.920;6.936;2022-09-01T12:45:02;28.70;73.90
2459;DHT22;1241;50.920;6.936;2022-09-01T12:52:52;28.60;73.30
2459;DHT22;1241;50.920;6.936;2022-09-01T12:55:28;28.40;73.60
2459;DHT22;1241;50.920;6.936;2022-09-01T12:57:59;28.30;74.70
2459;DHT22;1241;50.920;6.936;2022-09-01T13:00:34;28.40;74.70
2459;DHT22;1241;50.920;6.936;2022-09-01T13:03:15;28.00;74.90
2459;DHT22;1241;50.920;6.936;2022-09-01T13:05:44;27.40;76.70
2459;DHT22;1241;50.920;6.936;2022-09-01T13:08:21;27.10;77.80
2459;DHT22;1241;50.920;6.936;2022-09-01T13:10:49;26.80;78.80
2459;DHT22;1241;50.920;6.936;2022-09-01T13:13:16;26.70;79.60
2459;DHT22;1241;50.920;6.936;2022-09-01T13:15:47;26.50;80.30
2459;DHT22;1241;50.920;6.936;2022-09-01T13:18:20;26.40;80.90
2459;DHT22;1241;50.920;6.936;2022-09-01T13:20:47;26.30;81.20
2459;DHT22;1241;50.920;6.936;2022-09-01T13:23:13;26.10;82.40
2459;DHT22;1241;50.920;6.936;2022-09-01T13:25:40;25.90;83.30
2459;DHT22;1241;50.920;6.936;2022-09-01T13:28:09;25.70;84.10
2459;DHT22;1241;50.920;6.936;2022-09-01T13:30:36;25.70;84.70
2459;DHT22;1241;50.920;6.936;2022-09-01T13:33:02;25.60;85.20
2459;DHT22;1241;50.920;6.936;2022-09-01T13:35:28;25.80;84.40
2459;DHT22;1241;50.920;6.936;2022-09-01T13:37:53;26.10;83.80
2459;DHT22;1241;50.920;6.936;2022-09-01T13:40:20;26.40;83.20
2459;DHT22;1241;50.920;6.936;2022-09-01T13:42:48;26.70;83.40
2459;DHT22;1241;50.920;6.936;2022-09-01T13:45:15;27.20;82.40
2459;DHT22;1241;50.920;6.936;2022-09-01T13:47:44;27.40;81.80
2459;DHT22;1241;50.920;6.936;2022-09-01T13:50:13;27.80;80.30
2459;DHT22;1241;50.920;6.936;2022-09-01T13:52:40;28.00;78.60
2459;DHT22;1241;50.920;6.936;2022-09-01T13:55:12;28.20;77.90
2459;DHT22;1241;50.920;6.936;2022-09-01T13:57:37;28.20;77.20
2459;DHT22;1241;50.920;6.936;2022-09-01T14:00:05;28.10;77.20
2459;DHT22;1241;50.920;6.936;2022-09-01T14:02:39;28.20;77.10
2459;DHT22;1241;50.920;6.936;2022-09-01T14:05:06;28.30;76.80
2459;DHT22;1241;50.920;6.936;2022-09-01T14:07:31;28.10;76.80
2459;DHT22;1241;50.920;6.936;2022-09-01T14:09:58;28.10;75.70
2459;DHT22;1241;50.920;6.936;2022-09-01T14:12:25;27.90;75.90
2459;DHT22;1241;50.920;6.936;2022-09-01T14:14:50;28.00;75.20
2459;DHT22;1241;50.920;6.936;2022-09-01T14:17:16;27.90;75.40
2459;DHT22;1241;50.920;6.936;2022-09-01T14:19:42;28.00;75.70
2459;DHT22;1241;50.920;6.936;2022-09-01T14:22:11;28.00;75.60
2459;DHT22;1241;50.920;6.936;2022-09-01T14:24:37;28.10;74.40
2459;DHT22;1241;50.920;6.936;2022-09-01T14:27:03;28.20;73.40
2459;DHT22;1241;50.920;6.936;2022-09-01T14:29:29;28.10;73.10
2459;DHT22;1241;50.920;6.936;2022-09-01T14:31:55;28.00;73.60
2459;DHT22;1241;50.920;6.936;2022-09-01T14:34:22;28.00;74.40
2459;DHT22;1241;50.920;6.936;2022-09-01T14:36:50;28.00;75.20
2459;DHT22;1241;50.920;6.936;2022-09-01T14:39:17;27.90;75.70
2459;DHT22;1241;50.920;6.936;2022-09-01T14:41:43;27.90;75.30
2459;DHT22;1241;50.920;6.936;2022-09-01T14:44:09;27.80;74.70
2459;DHT22;1241;50.920;6.936;2022-09-01T14:46:34;27.50;75.00
2459;DHT22;1241;50.920;6.936;2022-09-01T14:49:02;27.30;75.50
2459;DHT22;1241;50.920;6.936;2022-09-01T14:51:30;27.20;75.90
2459;DHT22;1241;50.920;6.936;2022-09-01T14:53:56;27.20;74.90
2459;DHT22;1241;50.920;6.936;2022-09-01T14:56:23;27.30;74.50
2459;DHT22;1241;50.920;6.936;2022-09-01T14:58:50;27.30;71.20
2459;DHT22;1241;50.920;6.936;2022-09-01T15:01:19;27.20;70.40
2459;DHT22;1241;50.920;6.936;2022-09-01T15:03:46;27.30;71.40
2459;DHT22;1241;50.920;6.936;2022-09-01T15:06:14;27.20;71.30
2459;DHT22;1241;50.920;6.936;2022-09-01T15:08:40;27.20;71.60
2459;DHT22;1241;50.920;6.936;2022-09-01T15:11:10;27.30;71.30
2459;DHT22;1241;50.920;6.936;2022-09-01T15:13:37;27.30;69.90
2459;DHT22;1241;50.920;6.936;2022-09-01T15:16:04;27.40;69.40
2459;DHT22;1241;50.920;6.936;2022-09-01T15:18:30;27.60;69.30
2459;DHT22;1241;50.920;6.936;2022-09-01T15:20:56;27.80;67.80
2459;DHT22;1241;50.920;6.936;2022-09-01T15:23:23;28.10;67.90
2459;DHT22;1241;50.920;6.936;2022-09-01T15:25:52;28.30;66.60
2459;DHT22;1241;50.920;6.936;2022-09-01T15:28:19;28.20;66.30
2459;DHT22;1241;50.920;6.936;2022-09-01T15:30:45;28.30;66.00
2459;DHT22;1241;50.920;6.936;2022-09-01T15:33:12;28.40;66.20
2459;DHT22;1241;50.920;6.936;2022-09-01T15:35:38;28.40;66.00
2459;DHT22;1241;50.920;6.936;2022-09-01T15:38:05;28.30;66.60
2459;DHT22;1241;50.920;6.936;2022-09-01T15:40:32;28.30;67.00
2459;DHT22;1241;50.920;6.936;2022-09-01T15:42:58;28.40;65.60
2459;DHT22;1241;50.920;6.936;2022-09-01T15:45:26;28.40;64.50
2459;DHT22;1241;50.920;6.936;2022-09-01T15:47:51;28.30;64.80
2459;DHT22;1241;50.920;6.936;2022-09-01T15:50:20;28.20;65.30
2459;DHT22;1241;50.920;6.936;2022-09-01T15:52:53;28.10;65.70
2459;DHT22;1241;50.920;6.936;2022-09-01T15:55:21;28.00;66.30
2459;DHT22;1241;50.920;6.936;2022-09-01T15:57:47;28.00;66.00
2459;DHT22;1241;50.920;6.936;2022-09-01T16:00:14;27.80;66.20
2459;DHT22;1241;50.920;6.936;2022-09-01T16:02:40;27.90;66.00
2459;DHT22;1241;50.920;6.936;2022-09-01T16:05:07;27.70;65.90
2459;DHT22;1241;50.920;6.936;2022-09-01T16:07:33;27.70;66.40
2459;DHT22;1241;50.920;6.936;2022-09-01T16:09:59;27.80;65.50
2459;DHT22;1241;50.920;6.936;2022-09-01T16:12:25;27.80;65.00
2459;DHT22;1241;50.920;6.936;2022-09-01T16:14:52;27.60;64.30
2459;DHT22;1241;50.920;6.936;2022-09-01T16:17:39;27.50;63.30
2459;DHT22;1241;50.920;6.936;2022-09-01T16:20:18;27.30;62.30
2459;DHT22;1241;50.920;6.936;2022-09-01T16:25:27;26.90;63.10
2459;DHT22;1241;50.920;6.936;2022-09-01T16:27:54;26.90;63.60
2459;DHT22;1241;50.920;6.936;2022-09-01T16:30:29;26.80;63.10
2459;DHT22;1241;50.920;6.936;2022-09-01T16:33:02;26.60;63.90
2459;DHT22;1241;50.920;6.936;2022-09-01T16:35:43;26.40;64.80
2459;DHT22;1241;50.920;6.936;2022-09-01T16:41:18;26.10;65.70
2459;DHT22;1241;50.920;6.936;2022-09-01T16:58:06;25.70;67.40
2459;DHT22;1241;50.920;6.936;2022-09-01T17:06:28;25.50;65.80
2459;DHT22;1241;50.920;6.936;2022-09-01T17:09:20;25.40;65.20
2459;DHT22;1241;50.920;6.936;2022-09-01T17:11:58;25.50;64.90
2459;DHT22;1241;50.920;6.936;2022-09-01T17:14:34;25.20;65.20
2459;DHT22;1241;50.920;6.936;2022-09-01T17:17:17;25.10;65.20
2459;DHT22;1241;50.920;6.936;2022-09-01T17:19:44;25.10;65.60
2459;DHT22;1241;50.920;6.936;2022-09-01T17:22:15;25.00;66.20
2459;DHT22;1241;50.920;6.936;2022-09-01T17:24:49;25.00;67.20
2459;DHT22;1241;50.920;6.936;2022-09-01T17:30:10;24.80;67.90
2459;DHT22;1241;50.920;6.936;2022-09-01T17:43:52;24.40;68.90
2459;DHT22;1241;50.920;6.936;2022-09-01T17:46:50;24.40;69.00
2459;DHT22;1241;50.920;6.936;2022-09-01T17:55:05;24.20;69.10
2459;DHT22;1241;50.920;6.936;2022-09-01T18:00:49;24.00;69.60
2459;DHT22;1241;50.920;6.936;2022-09-01T18:06:55;23.90;70.50
2459;DHT22;1241;50.920;6.936;2022-09-01T18:09:24;23.70;71.80
2459;DHT22;1241;50.920;6.936;2022-09-01T18:12:00;23.70;71.00